Time;durP1;ratioP1;P1;durP2;ratioP2;P2;SDS_P1;SDS_P2;PMS_P1;PMS_P2;Temp;Humidity;BMP_temperature;BMP_pressure;BME280_temperature;BME280_humidity;BME280_pressure;Samples;Min_cycle;Max_cycle;Signal;HPM_P1;HPM_P2
2024/02/12 00:02:03;;;;;;;16.00;6.80;;;12.50;97.10;;;;;;5093613;28;20035;-79
2024/02/12 00:04:29;;;;;;;35.33;11.48;;;12.50;97.20;;;;;;5099733;28;20039;-79
2024/02/12 00:06:58;;;;;;;23.23;10.80;;;12.50;97.20;;;;;;5091125;28;20028;-77
2024/02/12 00:09:24;;;;;;;30.75;12.75;;;12.40;97.20;;;;;;5089942;28;20031;-77
2024/02/12 00:11:50;;;;;;;33.85;13.20;;;12.40;97.20;;;;;;5095938;28;20542;-77
2024/02/12 00:14:17;;;;;;;15.98;6.95;;;12.40;97.30;;;;;;5099875;28;20158;-77
2024/02/12 00:16:43;;;;;;;19.17;8.18;;;12.30;97.30;;;;;;5089953;28;20039;-77
2024/02/12 00:19:08;;;;;;;31.23;13.00;;;12.30;97.30;;;;;;5087958;28;20035;-77
2024/02/12 00:21:35;;;;;;;30.02;12.20;;;12.30;97.30;;;;;;5099462;28;20032;-77
2024/02/12 00:24:00;;;;;;;24.45;9.35;;;12.30;97.40;;;;;;5089755;28;20064;-77
2024/02/12 00:26:26;;;;;;;30.63;13.82;;;12.30;97.40;;;;;;5087295;28;20092;-77
2024/02/12 00:28:54;;;;;;;27.10;10.85;;;12.20;97.40;;;;;;5088684;28;20039;-77
2024/02/12 00:31:20;;;;;;;19.38;8.32;;;12.30;97.40;;;;;;5087221;28;20036;-77
2024/02/12 00:33:48;;;;;;;23.80;10.50;;;12.30;97.40;;;;;;5088779;28;20036;-77
2024/02/12 00:36:15;;;;;;;26.35;8.23;;;12.20;97.40;;;;;;5097905;28;20027;-77
2024/02/12 00:38:42;;;;;;;27.92;10.50;;;12.20;97.40;;;;;;5089516;28;20028;-77
2024/02/12 00:41:15;;;;;;;25.60;10.18;;;12.20;97.40;;;;;;5102357;27;20024;-77
2024/02/12 00:43:42;;;;;;;24.00;8.93;;;12.20;97.50;;;;;;5105256;28;20031;-77
2024/02/12 00:46:08;;;;;;;16.48;7.82;;;12.10;97.50;;;;;;5098726;28;20373;-77
2024/02/12 00:48:35;;;;;;;18.23;7.32;;;12.10;97.50;;;;;;5088938;28;20663;-77
2024/02/12 00:51:01;;;;;;;21.42;9.50;;;12.10;97.60;;;;;;5096909;28;20047;-77
2024/02/12 00:53:27;;;;;;;25.17;8.88;;;12.10;97.60;;;;;;5090448;28;20020;-77
2024/02/12 00:55:54;;;;;;;24.52;11.82;;;12.10;97.70;;;;;;5096920;28;20479;-77
2024/02/12 00:58:20;;;;;;;15.73;5.68;;;12.10;97.60;;;;;;5090117;28;20418;-77
2024/02/12 01:00:45;;;;;;;22.92;10.35;;;12.20;97.60;;;;;;5087055;28;20043;-77
2024/02/12 01:03:11;;;;;;;21.63;10.70;;;12.20;97.60;;;;;;5087178;28;20031;-77
2024/02/12 01:05:37;;;;;;;30.25;10.68;;;12.10;97.50;;;;;;5105640;28;20027;-77
2024/02/12 01:08:03;;;;;;;24.13;9.82;;;12.10;97.50;;;;;;5095428;28;20440;-78
2024/02/12 01:10:28;;;;;;;26.85;11.25;;;12.10;97.50;;;;;;5103321;28;20110;-77
2024/02/12 01:12:54;;;;;;;22.80;10.13;;;12.10;97.60;;;;;;5094573;28;20459;-77
2024/02/12 01:15:20;;;;;;;18.83;6.65;;;12.20;97.50;;;;;;5098757;28;20485;-77
2024/02/12 01:17:46;;;;;;;21.48;9.25;;;12.10;97.50;;;;;;5094597;28;20072;-77
2024/02/12 01:20:11;;;;;;;24.70;9.50;;;12.10;97.50;;;;;;5096125;28;20020;-77
2024/02/12 01:22:40;;;;;;;24.67;8.20;;;12.10;97.50;;;;;;5087938;28;20558;-77
2024/02/12 01:25:06;;;;;;;15.88;7.45;;;12.10;97.60;;;;;;5086768;28;20058;-77
2024/02/12 01:27:31;;;;;;;27.63;10.70;;;12.10;97.60;;;;;;5088689;28;20463;-77
2024/02/12 01:29:57;;;;;;;8.77;4.15;;;12.00;97.60;;;;;;5086375;28;20024;-77
2024/02/12 01:32:23;;;;;;;17.40;7.10;;;12.00;97.70;;;;;;5089589;28;20039;-77
2024/02/12 01:34:49;;;;;;;27.15;8.40;;;12.00;97.70;;;;;;5088569;28;20464;-78
2024/02/12 01:37:16;;;;;;;14.63;7.32;;;11.90;97.80;;;;;;5089837;28;20023;-77
2024/02/12 01:39:41;;;;;;;19.08;9.57;;;11.90;97.80;;;;;;5106789;28;20024;-77
2024/02/12 01:42:13;;;;;;;20.58;7.95;;;11.90;97.80;;;;;;5102749;28;20545;-77
2024/02/12 01:44:58;;;;;;;10.30;4.65;;;11.90;97.80;;;;;;5099723;28;20044;-77
2024/02/12 01:47:23;;;;;;;21.25;7.28;;;11.90;97.90;;;;;;5090387;28;20471;-77
2024/02/12 01:49:49;;;;;;;16.08;7.70;;;11.90;97.90;;;;;;5098012;28;20048;-77
2024/02/12 01:52:15;;;;;;;7.70;3.70;;;11.90;97.80;;;;;;5087982;28;20479;-77
2024/02/12 01:54:43;;;;;;;22.10;9.82;;;11.80;97.80;;;;;;5088770;28;20036;-77
2024/02/12 01:57:09;;;;;;;22.55;8.80;;;11.90;97.90;;;;;;5089932;28;20028;-77
2024/02/12 01:59:38;;;;;;;24.10;9.18;;;11.90;97.90;;;;;;5099284;28;20015;-77
2024/02/12 02:02:04;;;;;;;30.70;11.40;;;11.80;97.80;;;;;;5086138;28;20501;-77
2024/02/12 02:04:30;;;;;;;21.52;8.68;;;11.90;97.90;;;;;;5100394;28;20027;-77
2024/02/12 02:06:55;;;;;;;25.00;9.07;;;11.90;97.80;;;;;;5089024;28;20475;-77
2024/02/12 02:09:21;;;;;;;20.08;9.27;;;11.90;97.80;;;;;;5091710;28;20543;-77
2024/02/12 02:11:47;;;;;;;15.88;7.00;;;11.90;97.70;;;;;;5096350;28;20483;-77
2024/02/12 02:14:13;;;;;;;9.20;3.50;;;11.80;97.70;;;;;;5102731;28;20542;-77
2024/02/12 02:16:41;;;;;;;18.23;8.10;;;11.90;97.80;;;;;;5096745;28;20067;-77
2024/02/12 02:19:09;;;;;;;10.60;4.20;;;11.80;97.70;;;;;;5088468;28;20074;-77
2024/02/12 02:21:35;;;;;;;7.80;4.65;;;11.80;97.80;;;;;;5096933;28;20114;-77
2024/02/12 02:24:03;;;;;;;11.07;4.88;;;11.60;97.90;;;;;;5116842;28;20320;-77
2024/02/12 02:26:28;;;;;;;5.40;3.10;;;11.60;98.00;;;;;;5092684;27;20026;-77
2024/02/12 02:28:56;;;;;;;6.90;3.88;;;11.60;98.10;;;;;;5099462;28;20028;-77
2024/02/12 02:31:22;;;;;;;13.27;5.20;;;11.50;98.10;;;;;;5114245;27;20478;-77
2024/02/12 02:33:48;;;;;;;9.30;4.25;;;11.50;98.30;;;;;;5109415;28;20035;-77
2024/02/12 02:36:13;;;;;;;8.18;4.70;;;11.40;98.30;;;;;;5106352;28;20467;-77
2024/02/12 02:38:40;;;;;;;14.68;6.00;;;11.50;98.40;;;;;;5097568;28;20036;-77
2024/02/12 02:41:05;;;;;;;14.77;6.22;;;11.40;98.40;;;;;;5100073;28;20034;-77
2024/02/12 02:43:35;;;;;;;20.30;7.97;;;11.40;98.50;;;;;;5109546;28;20063;-77
2024/02/12 02:46:01;;;;;;;16.25;6.22;;;11.40;98.50;;;;;;5092543;28;20028;-77
2024/02/12 02:48:28;;;;;;;8.27;3.42;;;11.40;98.50;;;;;;5104348;28;20128;-77
2024/02/12 02:50:54;;;;;;;19.13;6.20;;;11.40;98.50;;;;;;5091253;28;20044;-77
2024/02/12 02:53:20;;;;;;;8.27;4.90;;;11.40;98.50;;;;;;5098525;28;20032;-77
2024/02/12 02:55:46;;;;;;;10.75;5.97;;;11.40;98.40;;;;;;5106775;27;20031;-77
2024/02/12 02:58:11;;;;;;;21.70;6.82;;;11.40;98.50;;;;;;5098814;27;20032;-77
2024/02/12 03:00:37;;;;;;;6.90;4.07;;;11.30;98.50;;;;;;5093142;28;20109;-77
2024/02/12 03:03:06;;;;;;;10.15;3.92;;;11.30;98.50;;;;;;5099576;28;20048;-77
2024/02/12 03:05:34;;;;;;;19.30;8.40;;;11.30;98.60;;;;;;5108161;28;20194;-77
2024/02/12 03:08:06;;;;;;;5.65;3.05;;;11.30;98.60;;;;;;5098161;28;20092;-77
2024/02/12 03:10:32;;;;;;;11.85;5.38;;;11.40;98.60;;;;;;5101957;28;20134;-77
2024/02/12 03:12:58;;;;;;;8.85;5.07;;;11.30;98.60;;;;;;5096901;28;20139;-77
2024/02/12 03:15:24;;;;;;;16.05;7.03;;;11.30;98.60;;;;;;5090298;28;20024;-77
2024/02/12 03:17:49;;;;;;;14.30;6.03;;;11.40;98.60;;;;;;5095612;28;20351;-77
2024/02/12 03:20:16;;;;;;;19.15;9.52;;;11.40;98.60;;;;;;5104603;28;20391;-77
2024/02/12 03:22:42;;;;;;;19.13;7.05;;;11.30;98.50;;;;;;5110076;28;20043;-77
2024/02/12 03:25:10;;;;;;;12.13;5.35;;;11.40;98.50;;;;;;5108927;28;20080;-77
2024/02/12 03:27:40;;;;;;;17.25;4.88;;;11.40;98.50;;;;;;5096681;28;20039;-77
2024/02/12 03:30:09;;;;;;;20.92;8.05;;;11.40;98.40;;;;;;5109951;27;20035;-77
2024/02/12 03:32:36;;;;;;;17.40;7.05;;;11.40;98.40;;;;;;5106748;28;20172;-77
2024/02/12 03:35:02;;;;;;;18.88;10.05;;;11.40;98.40;;;;;;5089671;28;20688;-77
2024/02/12 03:37:28;;;;;;;8.00;3.97;;;11.50;98.40;;;;;;5093447;28;20028;-77
2024/02/12 03:39:54;;;;;;;8.43;4.05;;;11.50;98.50;;;;;;5107650;28;20357;-77
2024/02/12 03:42:26;;;;;;;12.02;6.53;;;11.40;98.30;;;;;;5098879;28;20036;-77
2024/02/12 03:44:51;;;;;;;9.85;5.40;;;11.40;98.30;;;;;;5098040;28;20031;-77
2024/02/12 03:47:18;;;;;;;6.90;2.53;;;11.40;98.40;;;;;;5108329;28;20492;-77
2024/02/12 04:00:43;;;;;;;9.98;4.38;;;11.20;98.70;;;;;;5107910;28;20027;-77
2024/02/12 04:03:10;;;;;;;6.68;3.65;;;11.20;98.70;;;;;;5096674;28;20089;-77
2024/02/12 04:05:36;;;;;;;5.53;3.47;;;11.20;98.70;;;;;;5092536;28;20032;-77
2024/02/12 04:08:04;;;;;;;19.92;7.40;;;11.10;98.80;;;;;;5097380;28;20042;-77
2024/02/12 04:10:31;;;;;;;14.88;4.22;;;11.20;98.90;;;;;;5094299;28;20031;-77
2024/02/12 04:12:57;;;;;;;17.58;9.13;;;11.20;98.90;;;;;;5079828;28;20036;-77
2024/02/12 04:15:23;;;;;;;6.15;4.35;;;11.20;98.80;;;;;;5093585;28;20036;-77
2024/02/12 04:17:50;;;;;;;8.65;5.18;;;11.30;98.80;;;;;;5091208;28;20047;-77
2024/02/12 04:20:17;;;;;;;14.55;5.38;;;11.30;98.70;;;;;;5105722;28;20036;-77
2024/02/12 04:22:47;;;;;;;8.98;5.43;;;11.20;98.70;;;;;;5092933;28;20039;-77
2024/02/12 04:25:13;;;;;;;11.65;5.40;;;11.20;98.80;;;;;;5091561;28;20131;-77
2024/02/12 04:27:41;;;;;;;5.68;3.40;;;11.20;98.80;;;;;;5095818;28;20032;-77
2024/02/12 04:30:10;;;;;;;9.70;4.68;;;11.20;98.80;;;;;;5112115;27;20756;-77
2024/02/12 04:32:36;;;;;;;16.70;7.10;;;11.20;98.80;;;;;;5104827;27;20043;-77
2024/02/12 04:35:03;;;;;;;12.35;4.18;;;11.10;99.00;;;;;;5098320;28;20038;-77
2024/02/12 04:37:30;;;;;;;6.25;2.65;;;11.10;98.90;;;;;;5091152;28;20044;-77
2024/02/12 04:39:55;;;;;;;13.05;7.13;;;11.10;98.90;;;;;;5097959;28;20027;-77
2024/02/12 04:42:22;;;;;;;4.20;2.92;;;11.20;98.90;;;;;;5091931;28;20031;-77
2024/02/12 04:44:48;;;;;;;4.28;2.80;;;11.20;98.90;;;;;;5088556;28;20035;-77
2024/02/12 04:47:14;;;;;;;12.90;5.95;;;11.20;98.90;;;;;;5096469;28;20103;-77
2024/02/12 04:49:40;;;;;;;11.82;4.63;;;11.20;98.80;;;;;;5091482;28;20043;-77
2024/02/12 04:52:05;;;;;;;3.97;3.10;;;11.20;98.80;;;;;;5090733;28;20035;-77
2024/02/12 04:54:33;;;;;;;11.27;5.55;;;11.20;98.90;;;;;;5099329;28;20019;-77
2024/02/12 04:56:59;;;;;;;19.48;6.50;;;11.20;98.90;;;;;;5089050;28;20503;-77
2024/02/12 04:59:25;;;;;;;11.05;5.53;;;11.20;98.90;;;;;;5100350;28;20043;-77
2024/02/12 05:01:50;;;;;;;13.43;4.32;;;11.10;98.90;;;;;;5101529;28;20027;-77
2024/02/12 05:04:20;;;;;;;9.07;5.47;;;11.10;98.90;;;;;;5091018;28;20026;-77
2024/02/12 05:06:45;;;;;;;11.50;6.75;;;11.10;99.00;;;;;;5097109;28;20077;-77
2024/02/12 05:09:11;;;;;;;7.70;5.10;;;11.10;99.00;;;;;;5090980;28;20102;-77
2024/02/12 05:11:37;;;;;;;7.13;2.75;;;11.10;98.90;;;;;;5105928;28;20494;-77
2024/02/12 05:14:03;;;;;;;12.45;5.88;;;11.10;99.00;;;;;;5103296;28;20100;-78
2024/02/12 05:16:30;;;;;;;13.32;7.15;;;11.10;99.00;;;;;;5105100;28;20842;-77
2024/02/12 05:24:29;;;;;;;9.93;5.20;;;11.10;99.00;;;;;;5090790;28;20024;-77
2024/02/12 05:26:56;;;;;;;14.20;7.00;;;11.10;99.00;;;;;;5106397;28;20039;-77
2024/02/12 05:29:23;;;;;;;10.32;5.35;;;11.10;99.00;;;;;;5091924;28;20032;-77
2024/02/12 05:31:50;;;;;;;8.93;4.93;;;11.10;99.10;;;;;;5113649;28;20051;-77
2024/02/12 05:34:17;;;;;;;13.82;7.72;;;11.10;99.10;;;;;;5087382;28;20036;-78
2024/02/12 05:36:43;;;;;;;10.48;5.95;;;11.10;99.10;;;;;;5097596;28;20035;-78
2024/02/12 05:39:12;;;;;;;13.88;5.97;;;11.10;99.10;;;;;;5096569;28;20185;-78
2024/02/12 05:41:39;;;;;;;10.80;5.22;;;11.10;99.10;;;;;;5093460;28;20047;-80
2024/02/12 05:44:04;;;;;;;9.07;4.07;;;11.10;99.10;;;;;;5101230;28;20028;-79
2024/02/12 05:46:30;;;;;;;6.43;3.88;;;11.10;99.10;;;;;;5088678;28;20039;-79
2024/02/12 05:48:57;;;;;;;24.63;10.15;;;11.10;99.10;;;;;;5095618;28;20052;-77
2024/02/12 05:51:23;;;;;;;10.70;6.15;;;11.10;99.10;;;;;;5099785;28;20044;-74
2024/02/12 05:53:50;;;;;;;12.35;5.57;;;11.10;99.00;;;;;;5100019;28;20024;-74
2024/02/12 05:56:16;;;;;;;10.15;4.97;;;11.10;99.00;;;;;;5087528;28;20107;-78
2024/02/12 05:58:42;;;;;;;7.38;3.83;;;11.10;99.00;;;;;;5105764;28;20103;-77
2024/02/12 06:01:07;;;;;;;6.88;3.75;;;11.00;99.10;;;;;;5098351;28;20031;-78
2024/02/12 06:03:33;;;;;;;10.45;6.20;;;11.10;99.10;;;;;;5099425;28;20989;-77
2024/02/12 06:06:00;;;;;;;3.30;2.60;;;11.10;99.00;;;;;;5102800;28;20467;-76
2024/02/12 06:08:26;;;;;;;6.45;4.25;;;11.00;99.00;;;;;;5110030;28;20031;-76
2024/02/12 06:10:52;;;;;;;9.57;5.28;;;11.00;99.00;;;;;;5090656;28;20566;-76
2024/02/12 06:13:17;;;;;;;6.95;3.30;;;11.00;98.90;;;;;;5097754;28;20113;-76
2024/02/12 06:15:43;;;;;;;20.50;6.57;;;11.00;98.90;;;;;;5101224;28;20395;-77
2024/02/12 06:18:09;;;;;;;5.85;3.75;;;10.90;99.00;;;;;;5093362;28;20036;-80
2024/02/12 06:20:35;;;;;;;12.30;3.63;;;10.90;99.10;;;;;;5093217;28;20039;-77
2024/02/12 06:23:01;;;;;;;15.48;6.68;;;10.80;99.10;;;;;;5099601;28;20028;-77
2024/02/12 06:25:27;;;;;;;15.63;5.53;;;10.80;99.10;;;;;;5097942;28;20016;-77
2024/02/12 06:27:52;;;;;;;20.80;7.65;;;10.80;99.20;;;;;;5110502;28;20051;-78
2024/02/12 06:30:19;;;;;;;6.40;4.07;;;10.80;99.20;;;;;;5107524;27;20057;-76
2024/02/12 06:32:46;;;;;;;14.18;6.65;;;10.80;99.30;;;;;;5103227;28;20101;-77
2024/02/12 06:35:11;;;;;;;15.63;6.80;;;10.80;99.30;;;;;;5098834;28;20449;-77
2024/02/12 06:37:38;;;;;;;8.70;5.63;;;10.80;99.20;;;;;;5093984;28;20040;-79
2024/02/12 06:40:06;;;;;;;17.08;6.20;;;10.80;99.10;;;;;;5095878;28;20934;-78
2024/02/12 06:42:32;;;;;;;5.97;3.30;;;10.90;99.10;;;;;;5095270;28;20384;-78
2024/02/12 06:44:57;;;;;;;15.25;6.80;;;10.80;99.00;;;;;;5091554;28;20024;-75
2024/02/12 06:47:23;;;;;;;6.30;3.72;;;10.80;99.00;;;;;;5102596;28;20566;-78
2024/02/12 06:49:49;;;;;;;14.80;5.38;;;10.90;99.00;;;;;;5098532;28;20054;-78
2024/02/12 06:52:14;;;;;;;14.45;5.78;;;10.90;99.00;;;;;;5096262;28;20051;-79
2024/02/12 06:54:40;;;;;;;13.32;5.85;;;10.90;98.90;;;;;;5093232;28;20470;-77
2024/02/12 06:57:05;;;;;;;9.13;4.55;;;10.90;98.90;;;;;;5092298;28;20031;-77
2024/02/12 06:59:31;;;;;;;4.93;2.53;;;10.80;98.90;;;;;;5100159;28;20020;-77
2024/02/12 07:01:57;;;;;;;7.85;4.65;;;10.80;99.00;;;;;;5091202;28;20028;-77
2024/02/12 07:04:23;;;;;;;19.38;7.18;;;10.80;99.00;;;;;;5091705;28;20127;-77
2024/02/12 07:06:48;;;;;;;12.07;6.07;;;10.80;99.00;;;;;;5089559;28;20039;-76
2024/02/12 07:09:14;;;;;;;7.20;2.88;;;10.80;99.00;;;;;;5091316;28;20140;-77
2024/02/12 07:11:40;;;;;;;14.68;5.78;;;10.80;99.00;;;;;;5090885;28;20043;-77
2024/02/12 07:14:05;;;;;;;16.85;7.00;;;10.80;99.00;;;;;;5090259;28;20035;-77
2024/02/12 07:16:31;;;;;;;20.90;9.15;;;10.90;99.00;;;;;;5090161;28;20024;-77
2024/02/12 07:18:57;;;;;;;5.72;3.42;;;10.80;98.90;;;;;;5096636;28;20028;-77
2024/02/12 07:21:23;;;;;;;19.15;9.70;;;10.80;98.90;;;;;;5092945;28;20039;-76
2024/02/12 07:23:49;;;;;;;14.98;7.20;;;10.80;98.90;;;;;;5108564;28;20023;-77
2024/02/12 07:26:15;;;;;;;2.83;2.10;;;10.80;99.00;;;;;;5102010;28;20382;-77
2024/02/12 07:28:41;;;;;;;11.80;7.00;;;10.80;98.90;;;;;;5097969;28;20031;-77
2024/02/12 07:31:07;;;;;;;9.80;4.13;;;10.80;99.00;;;;;;5104130;27;20184;-77
2024/02/12 07:33:35;;;;;;;15.18;6.88;;;10.70;99.00;;;;;;5095405;28;20046;-75
2024/02/12 07:36:05;;;;;;;13.02;5.13;;;10.70;99.00;;;;;;5095344;28;20036;-76
2024/02/12 07:38:31;;;;;;;11.32;5.50;;;10.70;99.10;;;;;;5109799;28;20053;-76
2024/02/12 07:40:58;;;;;;;13.13;6.22;;;10.60;99.20;;;;;;5104803;28;20038;-78
2024/02/12 07:43:26;;;;;;;7.88;4.32;;;10.60;99.20;;;;;;5098379;28;20191;-77
2024/02/12 07:45:53;;;;;;;19.13;5.57;;;10.60;99.30;;;;;;5093982;28;20036;-76
2024/02/12 07:48:19;;;;;;;9.10;3.67;;;10.60;99.50;;;;;;5106564;28;20161;-77
2024/02/12 07:50:45;;;;;;;10.88;5.75;;;10.50;99.40;;;;;;5100255;28;20039;-76
2024/02/12 07:53:11;;;;;;;16.13;8.07;;;10.50;99.50;;;;;;5101563;28;20035;-78
2024/02/12 07:55:39;;;;;;;11.57;5.85;;;10.50;99.50;;;;;;5094941;28;20020;-77
2024/02/12 07:58:04;;;;;;;21.15;7.13;;;10.50;99.60;;;;;;5108971;28;20049;-76
2024/02/12 08:00:30;;;;;;;10.35;5.95;;;10.40;99.60;;;;;;5099720;28;20020;-76
2024/02/12 08:02:56;;;;;;;21.23;6.18;;;10.50;99.70;;;;;;5102190;28;20027;-79
2024/02/12 08:05:21;;;;;;;10.88;5.15;;;10.50;99.70;;;;;;5102484;28;20020;-79
2024/02/12 08:07:47;;;;;;;25.80;8.85;;;10.40;99.60;;;;;;5099051;28;20036;-78
2024/02/12 08:10:16;;;;;;;13.27;6.85;;;10.40;99.60;;;;;;5102612;28;20047;-78
2024/02/12 08:12:42;;;;;;;18.05;8.75;;;10.40;99.70;;;;;;5102763;28;20514;-79
2024/02/12 08:15:09;;;;;;;11.20;5.72;;;10.40;99.70;;;;;;5095284;28;20434;-79
2024/02/12 08:17:35;;;;;;;20.58;7.78;;;10.30;99.80;;;;;;5096508;28;20055;-79
2024/02/12 08:20:04;;;;;;;13.30;6.32;;;10.30;99.80;;;;;;5101720;28;20036;-79
2024/02/12 08:22:30;;;;;;;15.88;7.53;;;10.30;99.90;;;;;;5102432;28;20360;-78
2024/02/12 08:24:56;;;;;;;11.50;5.68;;;10.30;99.90;;;;;;5088640;28;20047;-83
2024/02/12 08:27:22;;;;;;;14.10;7.03;;;10.20;99.90;;;;;;5095838;28;20020;-75
2024/02/12 08:29:51;;;;;;;12.07;5.72;;;10.20;99.90;;;;;;5096652;27;20086;-77
2024/02/12 08:32:18;;;;;;;13.40;7.30;;;10.30;99.90;;;;;;5095492;28;20105;-79
2024/02/12 08:34:44;;;;;;;18.15;6.40;;;10.30;99.90;;;;;;5095109;28;20031;-80
2024/02/12 08:37:10;;;;;;;10.75;5.45;;;10.20;99.90;;;;;;5104256;28;20085;-79
2024/02/12 08:39:41;;;;;;;16.45;4.72;;;10.30;99.90;;;;;;5089286;28;20093;-79
2024/02/12 08:42:07;;;;;;;14.20;4.93;;;10.30;99.90;;;;;;5100887;28;20067;-79
2024/02/12 08:44:38;;;;;;;18.27;6.38;;;10.30;99.90;;;;;;5102926;28;20051;-79
2024/02/12 08:47:04;;;;;;;12.85;5.45;;;10.30;99.90;;;;;;5096778;28;20475;-79
2024/02/12 08:49:30;;;;;;;12.13;5.05;;;10.30;99.90;;;;;;5103283;28;20055;-79
2024/02/12 08:51:56;;;;;;;14.82;5.50;;;10.30;99.90;;;;;;5086539;28;20044;-79
2024/02/12 08:54:23;;;;;;;20.85;5.88;;;10.40;99.90;;;;;;5100255;28;20079;-79
2024/02/12 08:56:49;;;;;;;24.63;8.05;;;10.40;99.90;;;;;;5103810;28;20055;-79
2024/02/12 08:59:15;;;;;;;14.18;6.20;;;10.30;99.90;;;;;;5095765;28;20542;-79
2024/02/12 09:01:41;;;;;;;21.63;6.65;;;10.30;99.90;;;;;;5100179;28;20040;-79
2024/02/12 09:04:07;;;;;;;8.00;4.70;;;10.40;99.90;;;;;;5089817;28;20028;-79
2024/02/12 09:06:35;;;;;;;6.32;3.83;;;10.40;99.90;;;;;;5100516;28;20386;-80
2024/02/12 09:09:00;;;;;;;16.20;6.22;;;10.40;99.90;;;;;;5088740;28;20132;-80
2024/02/12 09:11:26;;;;;;;6.38;2.90;;;10.40;99.90;;;;;;5102720;28;20485;-79
2024/02/12 09:13:52;;;;;;;15.48;6.53;;;10.40;99.90;;;;;;5101460;28;20031;-79
2024/02/12 09:16:19;;;;;;;16.25;6.32;;;10.40;99.90;;;;;;5097298;28;20027;-79
2024/02/12 09:18:46;;;;;;;23.98;6.32;;;10.40;99.90;;;;;;5091631;28;20433;-79
2024/02/12 09:21:12;;;;;;;15.18;5.38;;;10.50;99.90;;;;;;5091342;28;20044;-79
2024/02/12 09:23:44;;;;;;;11.35;5.60;;;10.50;99.90;;;;;;5096985;28;20028;-79
2024/02/12 09:26:10;;;;;;;12.52;5.10;;;10.40;99.90;;;;;;5097969;28;20106;-79
2024/02/12 09:28:35;;;;;;;14.70;5.15;;;10.50;99.90;;;;;;5100980;28;20546;-80
2024/02/12 09:31:01;;;;;;;26.42;6.15;;;10.50;99.90;;;;;;5102287;28;20047;-79
2024/02/12 09:33:30;;;;;;;9.07;4.20;;;10.50;99.90;;;;;;5088492;28;20084;-78
2024/02/12 09:35:57;;;;;;;12.98;4.40;;;10.50;99.90;;;;;;5091126;28;20040;-76
2024/02/12 09:38:22;;;;;;;12.38;4.40;;;10.50;99.90;;;;;;5093804;28;20505;-79
2024/02/12 09:40:49;;;;;;;8.52;4.53;;;10.50;99.90;;;;;;5091281;28;20024;-79
2024/02/12 09:43:18;;;;;;;9.68;3.03;;;10.60;99.90;;;;;;5100480;28;20028;-80
2024/02/12 09:45:45;;;;;;;22.42;5.78;;;10.60;99.90;;;;;;5096638;28;20040;-79
2024/02/12 09:48:15;;;;;;;15.70;5.68;;;10.60;99.90;;;;;;5101501;28;20482;-80
2024/02/12 09:50:44;;;;;;;14.95;4.18;;;10.70;99.90;;;;;;5101917;28;20508;-79
2024/02/12 09:53:15;;;;;;;9.55;4.05;;;10.70;99.90;;;;;;5105158;28;20036;-76
2024/02/12 09:55:44;;;;;;;4.55;2.35;;;10.70;99.90;;;;;;5092411;28;20032;-81
2024/02/12 09:58:10;;;;;;;10.35;4.68;;;10.70;99.90;;;;;;5091706;28;20085;-80
2024/02/12 10:00:36;;;;;;;11.13;5.03;;;10.70;99.90;;;;;;5092882;28;20114;-86
2024/02/12 10:03:05;;;;;;;8.68;4.00;;;10.80;99.90;;;;;;5111794;28;20394;-81
2024/02/12 10:05:31;;;;;;;10.95;4.07;;;10.80;99.90;;;;;;5112170;28;20035;-81
2024/02/12 10:07:57;;;;;;;9.48;3.63;;;10.80;99.90;;;;;;5099620;28;20027;-82
2024/02/12 10:10:24;;;;;;;15.15;5.32;;;10.80;99.90;;;;;;5092405;28;20048;-83
2024/02/12 10:12:55;;;;;;;10.10;4.72;;;10.80;99.90;;;;;;5103993;28;20068;-75
2024/02/12 10:15:23;;;;;;;12.05;3.75;;;10.80;99.90;;;;;;5103116;28;20481;-86
2024/02/12 10:17:54;;;;;;;11.23;3.63;;;10.80;99.90;;;;;;5090338;28;20032;-80
2024/02/12 10:20:23;;;;;;;7.25;4.00;;;10.80;99.90;;;;;;5092455;28;20024;-86
2024/02/12 10:22:49;;;;;;;6.10;2.88;;;10.80;99.90;;;;;;5094474;28;20039;-80
2024/02/12 10:25:18;;;;;;;8.00;3.35;;;10.80;99.90;;;;;;5102049;28;20030;-80
2024/02/12 10:27:43;;;;;;;10.10;3.83;;;10.90;99.90;;;;;;5095294;28;20730;-81
2024/02/12 10:30:10;;;;;;;7.95;2.78;;;10.90;99.90;;;;;;5101300;27;20049;-82
2024/02/12 10:32:37;;;;;;;7.10;3.45;;;10.90;99.90;;;;;;5105105;28;20046;-81
2024/02/12 10:35:07;;;;;;;12.90;3.72;;;10.90;99.90;;;;;;5097684;28;20061;-80
2024/02/12 10:37:36;;;;;;;15.35;4.30;;;10.90;99.90;;;;;;5092632;28;20037;-80
2024/02/12 10:40:12;;;;;;;10.25;1.98;;;10.90;99.90;;;;;;5108469;28;20039;-80
2024/02/12 10:42:45;;;;;;;5.80;3.10;;;11.00;99.90;;;;;;5096399;28;20487;-80
2024/02/12 10:45:10;;;;;;;9.80;3.75;;;11.00;99.90;;;;;;5101314;28;20078;-81
2024/02/12 10:47:36;;;;;;;2.22;1.63;;;11.00;99.90;;;;;;5105720;28;20495;-80
2024/02/12 10:50:07;;;;;;;5.75;3.20;;;11.10;99.90;;;;;;5097296;28;20052;-81
2024/02/12 10:52:36;;;;;;;8.50;3.58;;;11.10;99.90;;;;;;5109956;28;20075;-81
2024/02/12 10:55:09;;;;;;;6.57;3.70;;;11.10;99.90;;;;;;5091877;28;20077;-80
2024/02/12 10:57:38;;;;;;;12.23;4.70;;;11.10;99.90;;;;;;5091726;28;20046;-79
2024/02/12 11:00:07;;;;;;;10.05;2.92;;;11.10;99.90;;;;;;5093006;28;20032;-79
2024/02/12 11:02:43;;;;;;;11.05;3.75;;;11.10;99.90;;;;;;5090380;28;20024;-80
2024/02/12 11:05:16;;;;;;;5.32;2.10;;;11.10;99.90;;;;;;5090222;28;20044;-81
2024/02/12 11:07:45;;;;;;;15.35;4.38;;;11.10;99.90;;;;;;5095162;28;20108;-81
2024/02/12 11:10:17;;;;;;;8.98;3.67;;;11.10;99.90;;;;;;5097333;28;20036;-81
2024/02/12 11:12:46;;;;;;;6.32;2.50;;;11.10;99.90;;;;;;5096838;28;20138;-80
2024/02/12 11:15:21;;;;;;;4.55;2.83;;;11.20;99.90;;;;;;5089806;28;20016;-78
2024/02/12 11:17:47;;;;;;;3.05;2.13;;;11.30;99.90;;;;;;5090443;28;20028;-78
2024/02/12 11:20:25;;;;;;;6.40;3.75;;;11.20;99.90;;;;;;5095335;28;20368;-78
2024/02/12 11:22:54;;;;;;;12.27;3.42;;;11.30;99.90;;;;;;5095267;28;20028;-78
2024/02/12 11:25:21;;;;;;;8.60;2.42;;;11.30;99.90;;;;;;5090294;28;20028;-77
2024/02/12 11:28:00;;;;;;;10.38;3.05;;;11.30;99.90;;;;;;5095608;28;20498;-77
2024/02/12 11:30:26;;;;;;;6.63;3.45;;;11.40;99.90;;;;;;5111388;27;20548;-78
2024/02/12 11:32:59;;;;;;;14.98;3.63;;;11.40;99.90;;;;;;5095713;28;20048;-77
2024/02/12 11:35:25;;;;;;;4.45;2.90;;;11.40;99.90;;;;;;5106125;28;20051;-78
2024/02/12 11:37:57;;;;;;;3.45;2.30;;;11.50;99.90;;;;;;5097532;28;20070;-78
2024/02/12 11:40:22;;;;;;;5.07;3.55;;;11.50;99.90;;;;;;5102698;28;20082;-77
2024/02/12 11:42:50;;;;;;;6.13;3.17;;;11.50;99.90;;;;;;5098012;28;20475;-77
2024/02/12 11:45:21;;;;;;;8.98;2.53;;;11.50;99.90;;;;;;5094026;28;20024;-78
2024/02/12 11:47:47;;;;;;;5.30;2.50;;;11.50;99.90;;;;;;5089703;28;20111;-78
2024/02/12 11:50:27;;;;;;;8.75;3.15;;;11.60;99.90;;;;;;5094575;28;20056;-78
2024/02/12 11:52:53;;;;;;;6.13;2.60;;;11.50;99.90;;;;;;5089234;28;20040;-77
2024/02/12 11:55:20;;;;;;;5.65;3.67;;;11.50;99.90;;;;;;5095826;28;20107;-77
2024/02/12 11:57:46;;;;;;;9.90;3.70;;;11.50;99.90;;;;;;5095531;28;20119;-78
2024/02/12 12:00:16;;;;;;;5.75;3.05;;;11.50;99.90;;;;;;5104555;28;20028;-78
2024/02/12 12:02:50;;;;;;;6.93;2.88;;;11.50;99.90;;;;;;5088489;28;20028;-78
2024/02/12 12:05:27;;;;;;;7.15;3.42;;;11.50;99.90;;;;;;5100250;28;20038;-78
2024/02/12 12:07:54;;;;;;;10.20;3.40;;;11.40;99.90;;;;;;5088794;28;20032;-78
2024/02/12 12:10:24;;;;;;;5.63;2.35;;;11.50;99.90;;;;;;5094097;28;20106;-78
2024/02/12 12:12:51;;;;;;;14.98;3.97;;;11.50;99.90;;;;;;5101695;28;20127;-77
2024/02/12 12:15:17;;;;;;;8.60;3.30;;;11.50;99.90;;;;;;5100592;28;20416;-77
2024/02/12 12:17:44;;;;;;;14.65;3.28;;;11.40;99.90;;;;;;5092263;28;20042;-78
2024/02/12 12:20:12;;;;;;;7.75;3.92;;;11.50;99.90;;;;;;5089611;28;20375;-78
2024/02/12 12:22:38;;;;;;;14.40;4.30;;;11.50;99.90;;;;;;5088125;28;20047;-78
2024/02/12 12:25:06;;;;;;;11.80;4.45;;;11.40;99.90;;;;;;5089787;28;20036;-78
2024/02/12 12:27:33;;;;;;;6.55;2.25;;;11.50;99.90;;;;;;5095774;28;20462;-78
2024/02/12 12:30:09;;;;;;;8.60;3.65;;;11.50;99.90;;;;;;5099900;27;20468;-78
2024/02/12 12:32:35;;;;;;;4.43;2.08;;;11.50;99.90;;;;;;5101345;27;20052;-79
2024/02/12 12:35:01;;;;;;;1.90;1.73;;;11.50;99.90;;;;;;5104086;28;20073;-78
2024/02/12 12:37:27;;;;;;;9.18;2.63;;;11.60;99.90;;;;;;5095619;28;20036;-76
2024/02/12 12:39:53;;;;;;;4.90;1.95;;;11.60;99.90;;;;;;5088865;28;20127;-74
2024/02/12 12:42:19;;;;;;;5.93;2.50;;;11.60;99.90;;;;;;5104424;28;20106;-76
2024/02/12 12:44:46;;;;;;;3.33;1.88;;;11.60;99.90;;;;;;5095320;28;20412;-77
2024/02/12 12:47:11;;;;;;;10.38;3.08;;;11.70;99.90;;;;;;5098542;28;20027;-76
2024/02/12 12:49:37;;;;;;;4.80;2.22;;;11.70;99.90;;;;;;5103262;28;20529;-76
2024/02/12 12:52:06;;;;;;;14.98;3.42;;;11.70;99.90;;;;;;5088552;28;20044;-75
2024/02/12 12:54:32;;;;;;;5.47;2.67;;;11.70;99.90;;;;;;5091764;28;20471;-77
2024/02/12 12:56:58;;;;;;;5.60;2.58;;;11.80;99.90;;;;;;5097697;28;20040;-76